createdAt,value
2018-07-12T11:17:58.123Z,55.60
2018-07-12T11:20:26.664Z,56.10
2018-07-12T11:22:55.205Z,56.30
2018-07-12T11:25:23.728Z,56.50
2018-07-12T11:27:52.243Z,55.50
2018-07-12T11:30:20.853Z,54.90
2018-07-12T11:32:49.394Z,54.60
2018-07-12T11:35:17.927Z,54.10
2018-07-12T11:40:14.616Z,54.40
2018-07-12T11:42:43.134Z,54.30
2018-07-12T11:45:11.659Z,53.80
2018-07-12T11:47:40.153Z,53.70
2018-07-12T11:50:09.020Z,53.40
2018-07-12T11:52:37.644Z,53.30
2018-07-12T11:55:06.343Z,53.10
2018-07-12T11:57:34.901Z,53.80
2018-07-12T12:00:03.524Z,54.00
2018-07-12T12:02:32.030Z,53.30
2018-07-12T12:05:00.560Z,53.30
2018-07-12T12:07:29.153Z,53.70
2018-07-12T12:09:57.664Z,53.10
2018-07-12T12:12:26.225Z,52.90
2018-07-12T12:14:54.719Z,52.60
2018-07-12T12:17:23.326Z,52.90
2018-07-12T12:19:51.872Z,53.30
2018-07-12T12:22:20.388Z,52.10
2018-07-12T12:24:48.915Z,53.00
2018-07-12T12:27:17.415Z,53.50
2018-07-12T12:29:45.940Z,53.30
2018-07-12T12:34:42.791Z,52.80
2018-07-12T12:37:11.292Z,52.10
2018-07-12T12:39:39.810Z,52.30
2018-07-12T12:42:08.331Z,52.50
2018-07-12T12:44:37.070Z,53.60
2018-07-12T12:47:05.692Z,53.70
2018-07-12T12:49:34.192Z,53.30
2018-07-12T12:52:02.740Z,53.40
2018-07-12T12:54:31.409Z,53.60
2018-07-12T12:56:59.904Z,53.10
2018-07-12T12:59:28.475Z,53.10
2018-07-12T13:01:57.096Z,53.30
2018-07-12T13:04:25.615Z,52.20
2018-07-12T13:06:54.148Z,52.90
2018-07-12T13:09:22.647Z,53.10
2018-07-12T13:11:51.178Z,53.60
2018-07-12T13:14:19.663Z,53.70
2018-07-12T13:16:48.217Z,53.20
2018-07-12T13:19:16.751Z,52.80
2018-07-12T13:21:45.299Z,52.70
2018-07-12T13:24:13.798Z,52.60
2018-07-12T13:26:42.276Z,52.30
2018-07-12T13:29:10.873Z,52.70
2018-07-12T13:31:39.594Z,52.70
2018-07-12T13:34:08.096Z,52.30
2018-07-12T13:36:36.632Z,52.50
2018-07-12T13:39:07.024Z,53.60
2018-07-12T13:41:35.565Z,52.70
2018-07-12T13:44:15.913Z,52.90
2018-07-12T13:46:44.827Z,52.70
2018-07-12T13:49:13.585Z,52.80
2018-07-12T13:51:42.238Z,53.20
2018-07-12T13:54:10.791Z,52.70
2018-07-12T13:56:39.794Z,53.00
2018-07-12T13:59:08.502Z,53.00
2018-07-12T14:01:37.018Z,51.60
2018-07-12T14:04:06.509Z,52.20
2018-07-12T14:06:35.197Z,52.40
2018-07-12T14:09:04.790Z,52.80
2018-07-12T14:11:33.345Z,51.70
2018-07-12T14:14:02.016Z,52.20
2018-07-12T14:16:30.632Z,50.60
2018-07-12T14:18:59.181Z,50.90
2018-07-12T14:21:27.875Z,51.40
2018-07-12T14:23:56.434Z,51.30
2018-07-12T14:26:25.312Z,51.60
2018-07-12T14:28:53.845Z,51.50
2018-07-12T14:31:22.721Z,51.10
2018-07-12T14:36:19.611Z,51.60
2018-07-12T14:38:48.143Z,51.80
2018-07-12T14:41:16.900Z,52.40
2018-07-12T14:43:45.539Z,52.20
2018-07-12T14:46:14.071Z,52.30
2018-07-12T14:48:42.623Z,51.90
2018-07-12T14:51:11.128Z,51.80
2018-07-12T14:53:39.807Z,51.70
2018-07-12T14:56:08.376Z,51.70
2018-07-12T14:58:36.983Z,51.60
2018-07-12T15:01:05.513Z,51.40
2018-07-12T15:06:02.400Z,51.30
2018-07-12T15:08:31.182Z,51.40
2018-07-12T15:10:59.890Z,51.20
2018-07-12T15:13:28.427Z,51.30
2018-07-12T15:15:57.073Z,49.50
2018-07-12T15:18:25.574Z,50.40
2018-07-12T15:20:54.119Z,50.50
2018-07-12T15:23:22.619Z,50.50
2018-07-12T15:25:51.171Z,50.50
2018-07-12T15:28:19.708Z,50.30
2018-07-12T15:30:48.236Z,50.70
2018-07-12T15:33:16.788Z,50.40
2018-07-12T15:35:45.449Z,50.40
2018-07-12T15:38:13.945Z,50.70
2018-07-12T15:40:42.590Z,51.10
2018-07-12T15:43:11.083Z,50.40
2018-07-12T15:45:39.583Z,50.30
2018-07-12T15:50:36.304Z,50.80
2018-07-12T15:53:04.935Z,51.00
2018-07-12T15:55:33.672Z,50.70
2018-07-12T15:58:02.155Z,50.50
2018-07-12T16:00:30.670Z,50.50
2018-07-12T16:02:59.294Z,50.60
2018-07-12T16:05:27.836Z,50.60
2018-07-12T16:07:56.391Z,50.40
2018-07-12T16:10:24.880Z,48.70
2018-07-12T16:12:53.440Z,46.00
2018-07-12T16:15:21.967Z,44.50
2018-07-12T16:17:50.484Z,45.40
2018-07-12T16:20:19.017Z,45.80
2018-07-12T16:22:47.520Z,44.50
2018-07-12T16:25:16.076Z,42.70
2018-07-12T16:27:44.651Z,41.20
2018-07-12T16:30:13.360Z,39.90
2018-07-12T16:32:41.964Z,38.60
2018-07-12T16:35:10.579Z,37.60
2018-07-12T16:37:39.111Z,37.40
2018-07-12T16:40:07.613Z,37.20
2018-07-12T16:42:36.127Z,36.60
2018-07-12T16:45:04.635Z,36.00
2018-07-12T16:47:33.147Z,37.30
2018-07-12T16:50:01.648Z,38.00
2018-07-12T16:52:30.151Z,38.60
2018-07-12T16:54:58.684Z,42.10
2018-07-12T16:57:27.173Z,44.30
2018-07-12T16:59:55.691Z,46.00
2018-07-12T17:02:24.183Z,47.60
2018-07-12T17:04:52.692Z,48.70
2018-07-12T17:07:21.612Z,49.70
2018-07-12T17:09:50.052Z,50.40
2018-07-12T17:12:18.683Z,50.80
2018-07-12T17:14:47.241Z,51.30
2018-07-12T17:17:15.736Z,51.70
2018-07-12T17:19:44.301Z,52.10
2018-07-12T17:22:12.799Z,52.20
2018-07-12T17:24:41.283Z,52.40
2018-07-12T17:27:09.839Z,52.60
2018-07-12T17:29:38.335Z,52.70
2018-07-12T17:32:06.842Z,53.00
2018-07-12T17:34:35.361Z,53.10
2018-07-12T17:37:03.851Z,53.10
2018-07-12T17:39:32.388Z,53.20
2018-07-12T17:42:00.883Z,53.40
2018-07-12T17:44:29.482Z,53.50
2018-07-12T17:46:58.022Z,53.60
2018-07-12T17:49:26.582Z,53.60
2018-07-12T17:51:55.155Z,53.60
2018-07-12T17:54:23.798Z,53.60
2018-07-12T17:56:52.286Z,53.70
2018-07-12T17:59:20.846Z,53.80
2018-07-12T18:01:49.376Z,53.70
2018-07-12T18:06:46.104Z,54.00
2018-07-12T18:09:14.849Z,54.00
2018-07-12T18:11:43.330Z,54.10
2018-07-12T18:14:11.910Z,54.10
2018-07-12T18:16:40.397Z,54.10
2018-07-12T18:19:08.886Z,54.10
2018-07-12T18:21:37.391Z,54.10
2018-07-12T18:24:05.910Z,54.20
2018-07-12T18:26:34.400Z,54.10
2018-07-12T18:29:03.096Z,53.90
2018-07-12T18:31:31.591Z,54.20
2018-07-12T18:34:00.135Z,54.20
2018-07-12T18:36:28.915Z,54.20
2018-07-12T18:38:57.406Z,54.20
2018-07-12T18:41:25.947Z,54.20
2018-07-12T18:43:54.462Z,54.30
2018-07-12T18:46:22.958Z,54.30
2018-07-12T18:48:51.439Z,54.30
2018-07-12T18:51:20.088Z,54.40
2018-07-12T18:53:48.686Z,54.40
2018-07-12T18:56:17.179Z,54.40
2018-07-12T18:58:45.694Z,54.40
2018-07-12T19:01:14.191Z,54.50
2018-07-12T19:03:42.742Z,54.50
2018-07-12T19:06:11.206Z,54.50
2018-07-12T19:08:39.701Z,54.50
2018-07-12T19:11:08.231Z,54.50
2018-07-12T19:13:36.726Z,54.50
2018-07-12T19:16:05.243Z,54.50
2018-07-12T19:18:33.727Z,54.50
2018-07-12T19:21:02.277Z,54.50
2018-07-12T19:23:30.754Z,54.50
2018-07-12T19:25:59.348Z,54.60
2018-07-12T19:28:27.874Z,54.60
2018-07-12T19:30:56.383Z,54.60
2018-07-12T19:33:24.948Z,55.40
2018-07-12T19:35:53.458Z,54.60
2018-07-12T19:38:22.071Z,54.60
2018-07-12T19:40:50.583Z,54.70
2018-07-12T19:43:19.087Z,54.60
2018-07-12T19:45:47.571Z,54.70
2018-07-12T19:48:16.078Z,54.70
2018-07-12T19:50:44.727Z,54.70
2018-07-12T19:53:13.226Z,54.80
2018-07-12T19:55:41.746Z,55.40
2018-07-12T19:58:10.266Z,54.80
2018-07-12T20:00:38.808Z,54.70
